Pagina principale
METAR-TAF:

METAR-TAF

Aeroporti :

Viterbo, Italia

Aeroporto di Viterbo

latitudine: 42-26N, longitudine: 012-03E, altezza: 300 m

Osservazione

Il bollettino è stato emesso 6 ore e 46 minuti fa, alle 17:55 UTC
Temperature 10°C
Umidità 87%
Pressione 1011 hPa
Visibilità 10 km o più
Nubi sparse ad un'altezza di 1800 ft
Nuvoloso ad un'altezza di 2800 ft

METAR: LIRV 161755Z /////KT 9999 SCT018 BKN028 10/08 Q1011

Ora: 01:41 (00:41 UTC)

Previsione

Il bollettino è stato emesso 10 ore e 41 minuti fa, alle 14:00 UTC
Previsione valida dal 16 alle 15 UTC al 16 alle 24 UTC
Vento 12 kt da sud-ovest
Visibilità 10 km o più
Nubi sparse ad un'altezza di 2000 ft
Nuvoloso ad un'altezza di 2500 ft

TAF: LIRV 161400Z 1615/1624 23012KT 9999 SCT020 BKN025

Osservazioni e previsioni meteorologiche di più di 4000 aeroporti (messaggi METAR e TAF).

Le stazioni disponibili sono rappresentate dai dischi gialli e rossi sulla carta.

Puntare il mouse per vedere il nome della stazione.

Clicca sopra per visualizzare le osservazioni e previsioni meteorologiche.

Per cambiare la mappa : fare clic sui pulsanti verdi con una croce nera per ingrandire, il pulsante verde con un trattino per diminuire, o sulla freccia verde per le mappe adiacenti.


METAR-TAF: